sensor_id;sensor_type;location;lat;lon;timestamp;P1;durP1;ratioP1;P2;durP2;ratioP2
13309;SDS011;6723;48.256;16.402;2022-08-04T00:00:44;12.20;;;6.13;;
13309;SDS011;6723;48.256;16.402;2022-08-04T00:03:39;6.10;;;5.30;;
13309;SDS011;6723;48.256;16.402;2022-08-04T00:07:18;5.97;;;5.37;;
13309;SDS011;6723;48.256;16.402;2022-08-04T00:09:38;7.43;;;5.77;;
13309;SDS011;6723;48.256;16.402;2022-08-04T00:12:16;6.80;;;5.73;;
13309;SDS011;6723;48.256;16.402;2022-08-04T00:14:49;7.97;;;5.90;;
13309;SDS011;6723;48.256;16.402;2022-08-04T00:17:19;7.50;;;6.30;;
13309;SDS011;6723;48.256;16.402;2022-08-04T00:19:47;8.20;;;6.30;;
13309;SDS011;6723;48.256;16.402;2022-08-04T00:22:16;13.80;;;6.60;;
13309;SDS011;6723;48.256;16.402;2022-08-04T00:24:45;8.90;;;6.63;;
13309;SDS011;6723;48.256;16.402;2022-08-04T00:27:11;8.47;;;5.90;;
13309;SDS011;6723;48.256;16.402;2022-08-04T00:29:38;10.23;;;6.37;;
13309;SDS011;6723;48.256;16.402;2022-08-04T00:32:05;9.80;;;6.80;;
13309;SDS011;6723;48.256;16.402;2022-08-04T00:34:33;6.53;;;5.90;;
13309;SDS011;6723;48.256;16.402;2022-08-04T00:37:00;9.03;;;6.73;;
13309;SDS011;6723;48.256;16.402;2022-08-04T00:39:27;9.57;;;6.53;;
13309;SDS011;6723;48.256;16.402;2022-08-04T00:53:12;6.37;;;5.20;;
13309;SDS011;6723;48.256;16.402;2022-08-04T00:59:13;6.83;;;5.47;;
13309;SDS011;6723;48.256;16.402;2022-08-04T01:01:43;8.37;;;5.40;;
13309;SDS011;6723;48.256;16.402;2022-08-04T01:04:15;5.67;;;5.07;;
13309;SDS011;6723;48.256;16.402;2022-08-04T01:18:04;7.70;;;5.43;;
13309;SDS011;6723;48.256;16.402;2022-08-04T01:20:47;8.07;;;5.70;;
13309;SDS011;6723;48.256;16.402;2022-08-04T01:24:00;5.43;;;5.00;;
13309;SDS011;6723;48.256;16.402;2022-08-04T01:27:23;5.50;;;4.80;;
13309;SDS011;6723;48.256;16.402;2022-08-04T01:30:08;6.70;;;4.87;;
13309;SDS011;6723;48.256;16.402;2022-08-04T01:32:31;6.30;;;5.10;;
13309;SDS011;6723;48.256;16.402;2022-08-04T01:35:10;5.27;;;4.57;;
13309;SDS011;6723;48.256;16.402;2022-08-04T01:37:48;5.03;;;4.27;;
13309;SDS011;6723;48.256;16.402;2022-08-04T01:40:26;4.63;;;4.13;;
13309;SDS011;6723;48.256;16.402;2022-08-04T01:42:53;4.50;;;4.10;;
13309;SDS011;6723;48.256;16.402;2022-08-04T01:45:20;5.90;;;4.20;;
13309;SDS011;6723;48.256;16.402;2022-08-04T01:47:50;5.53;;;4.50;;
13309;SDS011;6723;48.256;16.402;2022-08-04T01:50:17;4.63;;;4.23;;
13309;SDS011;6723;48.256;16.402;2022-08-04T01:52:44;5.13;;;4.63;;
13309;SDS011;6723;48.256;16.402;2022-08-04T01:55:11;6.67;;;4.47;;
13309;SDS011;6723;48.256;16.402;2022-08-04T01:57:41;4.93;;;4.53;;
13309;SDS011;6723;48.256;16.402;2022-08-04T02:00:18;5.47;;;4.37;;
13309;SDS011;6723;48.256;16.402;2022-08-04T02:02:48;5.30;;;4.67;;
13309;SDS011;6723;48.256;16.402;2022-08-04T02:05:15;5.33;;;4.47;;
13309;SDS011;6723;48.256;16.402;2022-08-04T02:14:00;5.83;;;4.53;;
13309;SDS011;6723;48.256;16.402;2022-08-04T02:17:11;7.87;;;4.83;;
13309;SDS011;6723;48.256;16.402;2022-08-04T02:22:21;4.83;;;4.33;;
13309;SDS011;6723;48.256;16.402;2022-08-04T02:25:02;4.73;;;4.27;;
13309;SDS011;6723;48.256;16.402;2022-08-04T02:30:13;5.27;;;4.80;;
13309;SDS011;6723;48.256;16.402;2022-08-04T02:32:38;6.13;;;4.73;;
13309;SDS011;6723;48.256;16.402;2022-08-04T02:35:13;6.07;;;4.73;;
13309;SDS011;6723;48.256;16.402;2022-08-04T02:37:47;6.33;;;4.90;;
13309;SDS011;6723;48.256;16.402;2022-08-04T02:40:19;5.40;;;4.67;;
13309;SDS011;6723;48.256;16.402;2022-08-04T02:42:46;5.17;;;4.67;;
13309;SDS011;6723;48.256;16.402;2022-08-04T02:45:15;8.30;;;5.00;;
13309;SDS011;6723;48.256;16.402;2022-08-04T02:47:45;6.07;;;5.30;;
13309;SDS011;6723;48.256;16.402;2022-08-04T02:50:17;9.33;;;5.00;;
13309;SDS011;6723;48.256;16.402;2022-08-04T02:52:44;6.43;;;5.07;;
13309;SDS011;6723;48.256;16.402;2022-08-04T02:55:13;6.97;;;5.10;;
13309;SDS011;6723;48.256;16.402;2022-08-04T02:57:43;6.20;;;4.80;;
13309;SDS011;6723;48.256;16.402;2022-08-04T03:00:12;8.03;;;5.17;;
13309;SDS011;6723;48.256;16.402;2022-08-04T03:05:30;5.40;;;4.90;;
13309;SDS011;6723;48.256;16.402;2022-08-04T03:14:11;7.90;;;5.03;;
13309;SDS011;6723;48.256;16.402;2022-08-04T03:29:16;6.27;;;5.00;;
13309;SDS011;6723;48.256;16.402;2022-08-04T03:37:02;6.70;;;5.10;;
13309;SDS011;6723;48.256;16.402;2022-08-04T04:05:32;4.93;;;4.43;;
13309;SDS011;6723;48.256;16.402;2022-08-04T04:10:38;6.53;;;5.50;;
13309;SDS011;6723;48.256;16.402;2022-08-04T04:47:05;9.73;;;6.63;;
13309;SDS011;6723;48.256;16.402;2022-08-04T04:52:41;9.43;;;6.80;;
13309;SDS011;6723;48.256;16.402;2022-08-04T04:57:47;9.80;;;6.50;;
13309;SDS011;6723;48.256;16.402;2022-08-04T05:00:16;8.40;;;5.93;;
13309;SDS011;6723;48.256;16.402;2022-08-04T05:13:57;10.13;;;6.30;;
13309;SDS011;6723;48.256;16.402;2022-08-04T05:16:33;10.93;;;6.43;;
13309;SDS011;6723;48.256;16.402;2022-08-04T05:21:46;13.83;;;6.13;;
13309;SDS011;6723;48.256;16.402;2022-08-04T05:24:16;14.37;;;6.33;;
13309;SDS011;6723;48.256;16.402;2022-08-04T05:26:49;12.23;;;5.53;;
13309;SDS011;6723;48.256;16.402;2022-08-04T05:29:29;8.60;;;5.90;;
13309;SDS011;6723;48.256;16.402;2022-08-04T05:32:01;11.83;;;6.13;;
13309;SDS011;6723;48.256;16.402;2022-08-04T05:34:37;14.97;;;7.03;;
13309;SDS011;6723;48.256;16.402;2022-08-04T05:37:11;11.07;;;6.83;;
13309;SDS011;6723;48.256;16.402;2022-08-04T05:39:42;14.30;;;8.07;;
13309;SDS011;6723;48.256;16.402;2022-08-04T05:42:15;10.20;;;7.13;;
13309;SDS011;6723;48.256;16.402;2022-08-04T05:44:41;13.57;;;7.13;;
13309;SDS011;6723;48.256;16.402;2022-08-04T05:47:09;12.73;;;6.83;;
13309;SDS011;6723;48.256;16.402;2022-08-04T05:49:37;9.67;;;7.63;;
13309;SDS011;6723;48.256;16.402;2022-08-04T05:52:05;13.10;;;7.60;;
13309;SDS011;6723;48.256;16.402;2022-08-04T05:54:33;12.60;;;7.77;;
13309;SDS011;6723;48.256;16.402;2022-08-04T05:57:02;9.23;;;7.63;;
13309;SDS011;6723;48.256;16.402;2022-08-04T05:59:30;9.17;;;7.30;;
13309;SDS011;6723;48.256;16.402;2022-08-04T06:01:59;18.17;;;8.03;;
13309;SDS011;6723;48.256;16.402;2022-08-04T06:04:59;17.13;;;9.33;;
13309;SDS011;6723;48.256;16.402;2022-08-04T06:07:19;18.70;;;8.90;;
13309;SDS011;6723;48.256;16.402;2022-08-04T06:09:45;13.60;;;8.13;;
13309;SDS011;6723;48.256;16.402;2022-08-04T06:12:20;14.30;;;8.53;;
13309;SDS011;6723;48.256;16.402;2022-08-04T06:15:02;14.10;;;8.40;;
13309;SDS011;6723;48.256;16.402;2022-08-04T06:17:32;16.13;;;9.20;;
13309;SDS011;6723;48.256;16.402;2022-08-04T06:20:02;13.13;;;8.77;;
13309;SDS011;6723;48.256;16.402;2022-08-04T06:22:29;20.13;;;9.10;;
13309;SDS011;6723;48.256;16.402;2022-08-04T06:25:00;16.90;;;8.23;;
13309;SDS011;6723;48.256;16.402;2022-08-04T06:27:29;13.40;;;7.57;;
13309;SDS011;6723;48.256;16.402;2022-08-04T06:29:56;12.17;;;7.70;;
13309;SDS011;6723;48.256;16.402;2022-08-04T06:32:25;17.40;;;8.43;;
13309;SDS011;6723;48.256;16.402;2022-08-04T06:35:12;13.17;;;7.63;;
13309;SDS011;6723;48.256;16.402;2022-08-04T06:37:41;12.30;;;8.67;;
13309;SDS011;6723;48.256;16.402;2022-08-04T06:40:11;10.37;;;8.50;;
13309;SDS011;6723;48.256;16.402;2022-08-04T06:42:39;10.43;;;7.60;;
13309;SDS011;6723;48.256;16.402;2022-08-04T06:45:25;11.33;;;7.00;;
13309;SDS011;6723;48.256;16.402;2022-08-04T06:47:52;12.70;;;7.47;;
13309;SDS011;6723;48.256;16.402;2022-08-04T06:50:20;11.37;;;7.27;;
13309;SDS011;6723;48.256;16.402;2022-08-04T06:52:47;16.03;;;7.30;;
13309;SDS011;6723;48.256;16.402;2022-08-04T06:55:13;14.70;;;7.03;;
13309;SDS011;6723;48.256;16.402;2022-08-04T06:57:39;6.53;;;5.57;;
13309;SDS011;6723;48.256;16.402;2022-08-04T07:00:08;8.67;;;5.70;;
13309;SDS011;6723;48.256;16.402;2022-08-04T07:02:41;6.93;;;5.60;;
13309;SDS011;6723;48.256;16.402;2022-08-04T07:05:10;8.23;;;5.60;;
13309;SDS011;6723;48.256;16.402;2022-08-04T07:07:37;7.43;;;5.87;;
13309;SDS011;6723;48.256;16.402;2022-08-04T07:10:04;9.67;;;5.73;;
13309;SDS011;6723;48.256;16.402;2022-08-04T07:12:32;6.60;;;5.93;;
13309;SDS011;6723;48.256;16.402;2022-08-04T07:14:58;7.70;;;5.60;;
13309;SDS011;6723;48.256;16.402;2022-08-04T07:17:25;7.53;;;5.73;;
13309;SDS011;6723;48.256;16.402;2022-08-04T07:19:52;10.60;;;6.50;;
13309;SDS011;6723;48.256;16.402;2022-08-04T07:22:19;12.10;;;5.50;;
13309;SDS011;6723;48.256;16.402;2022-08-04T07:24:46;8.73;;;5.67;;
13309;SDS011;6723;48.256;16.402;2022-08-04T07:27:12;10.02;;;5.43;;
13309;SDS011;6723;48.256;16.402;2022-08-04T07:29:37;6.47;;;5.05;;
13309;SDS011;6723;48.256;16.402;2022-08-04T07:32:05;6.47;;;4.40;;
13309;SDS011;6723;48.256;16.402;2022-08-04T07:34:31;4.72;;;4.00;;
13309;SDS011;6723;48.256;16.402;2022-08-04T07:36:58;5.20;;;3.40;;
13309;SDS011;6723;48.256;16.402;2022-08-04T07:39:28;5.38;;;3.22;;
13309;SDS011;6723;48.256;16.402;2022-08-04T07:42:00;2.90;;;2.70;;
13309;SDS011;6723;48.256;16.402;2022-08-04T07:44:27;3.05;;;2.63;;
13309;SDS011;6723;48.256;16.402;2022-08-04T07:46:57;5.25;;;2.80;;
13309;SDS011;6723;48.256;16.402;2022-08-04T07:49:26;5.32;;;2.60;;
13309;SDS011;6723;48.256;16.402;2022-08-04T07:51:52;2.78;;;2.50;;
13309;SDS011;6723;48.256;16.402;2022-08-04T07:54:19;5.63;;;2.50;;
13309;SDS011;6723;48.256;16.402;2022-08-04T07:56:46;4.03;;;2.40;;
13309;SDS011;6723;48.256;16.402;2022-08-04T07:59:16;2.60;;;2.40;;
13309;SDS011;6723;48.256;16.402;2022-08-04T08:01:42;5.50;;;2.50;;
13309;SDS011;6723;48.256;16.402;2022-08-04T08:04:10;3.75;;;2.40;;
13309;SDS011;6723;48.256;16.402;2022-08-04T08:06:36;2.53;;;2.30;;
13309;SDS011;6723;48.256;16.402;2022-08-04T08:09:12;2.20;;;1.90;;
13309;SDS011;6723;48.256;16.402;2022-08-04T08:11:50;4.30;;;1.90;;
13309;SDS011;6723;48.256;16.402;2022-08-04T08:14:17;1.75;;;1.65;;
13309;SDS011;6723;48.256;16.402;2022-08-04T08:16:44;2.67;;;1.73;;
13309;SDS011;6723;48.256;16.402;2022-08-04T08:19:11;7.22;;;1.92;;
13309;SDS011;6723;48.256;16.402;2022-08-04T08:21:38;2.63;;;1.65;;
13309;SDS011;6723;48.256;16.402;2022-08-04T08:24:04;2.58;;;1.88;;
13309;SDS011;6723;48.256;16.402;2022-08-04T08:26:30;4.63;;;1.77;;
13309;SDS011;6723;48.256;16.402;2022-08-04T08:28:57;3.67;;;1.80;;
13309;SDS011;6723;48.256;16.402;2022-08-04T08:31:23;4.90;;;1.90;;
13309;SDS011;6723;48.256;16.402;2022-08-04T08:33:49;3.80;;;1.90;;
13309;SDS011;6723;48.256;16.402;2022-08-04T08:36:25;2.25;;;1.65;;
13309;SDS011;6723;48.256;16.402;2022-08-04T08:39:02;3.20;;;1.70;;
13309;SDS011;6723;48.256;16.402;2022-08-04T08:50:36;3.15;;;1.70;;
13309;SDS011;6723;48.256;16.402;2022-08-04T08:56:10;2.88;;;1.70;;
13309;SDS011;6723;48.256;16.402;2022-08-04T09:02:02;5.18;;;2.08;;
13309;SDS011;6723;48.256;16.402;2022-08-04T09:15:26;2.85;;;1.60;;
13309;SDS011;6723;48.256;16.402;2022-08-04T09:20:58;2.53;;;1.70;;
13309;SDS011;6723;48.256;16.402;2022-08-04T09:29:18;6.40;;;2.17;;
13309;SDS011;6723;48.256;16.402;2022-08-04T09:31:57;2.42;;;1.73;;
13309;SDS011;6723;48.256;16.402;2022-08-04T09:34:54;4.53;;;2.03;;
13309;SDS011;6723;48.256;16.402;2022-08-04T09:40:57;5.55;;;1.75;;
13309;SDS011;6723;48.256;16.402;2022-08-04T09:46:57;4.88;;;1.80;;
13309;SDS011;6723;48.256;16.402;2022-08-04T09:56:07;2.70;;;2.13;;
13309;SDS011;6723;48.256;16.402;2022-08-04T10:00:52;2.45;;;1.90;;
13309;SDS011;6723;48.256;16.402;2022-08-04T10:03:34;4.50;;;2.20;;
13309;SDS011;6723;48.256;16.402;2022-08-04T10:06:09;3.05;;;2.10;;
13309;SDS011;6723;48.256;16.402;2022-08-04T10:26:29;3.50;;;2.08;;
13309;SDS011;6723;48.256;16.402;2022-08-04T10:29:23;3.78;;;2.22;;
13309;SDS011;6723;48.256;16.402;2022-08-04T10:37:27;2.97;;;2.10;;
13309;SDS011;6723;48.256;16.402;2022-08-04T10:40:11;2.63;;;2.00;;
13309;SDS011;6723;48.256;16.402;2022-08-04T10:43:17;2.17;;;1.98;;
13309;SDS011;6723;48.256;16.402;2022-08-04T10:54:01;2.33;;;1.90;;
13309;SDS011;6723;48.256;16.402;2022-08-04T10:56:41;2.50;;;2.08;;
13309;SDS011;6723;48.256;16.402;2022-08-04T10:59:37;2.25;;;1.90;;
13309;SDS011;6723;48.256;16.402;2022-08-04T11:02:19;2.28;;;1.80;;
13309;SDS011;6723;48.256;16.402;2022-08-04T11:08:08;3.67;;;2.05;;
13309;SDS011;6723;48.256;16.402;2022-08-04T11:10:45;3.85;;;1.98;;
13309;SDS011;6723;48.256;16.402;2022-08-04T11:13:15;4.55;;;2.10;;
13309;SDS011;6723;48.256;16.402;2022-08-04T11:15:51;3.22;;;2.17;;
13309;SDS011;6723;48.256;16.402;2022-08-04T11:21:13;2.30;;;1.85;;
13309;SDS011;6723;48.256;16.402;2022-08-04T11:23:45;2.28;;;2.00;;
13309;SDS011;6723;48.256;16.402;2022-08-04T11:26:20;2.25;;;2.05;;
13309;SDS011;6723;48.256;16.402;2022-08-04T11:29:00;3.20;;;2.00;;
13309;SDS011;6723;48.256;16.402;2022-08-04T11:31:38;2.50;;;2.13;;
13309;SDS011;6723;48.256;16.402;2022-08-04T11:39:43;2.63;;;2.08;;
13309;SDS011;6723;48.256;16.402;2022-08-04T11:42:22;3.03;;;2.30;;
13309;SDS011;6723;48.256;16.402;2022-08-04T11:50:46;3.17;;;2.17;;
13309;SDS011;6723;48.256;16.402;2022-08-04T11:53:17;4.38;;;2.13;;
13309;SDS011;6723;48.256;16.402;2022-08-04T11:55:53;4.95;;;2.40;;
13309;SDS011;6723;48.256;16.402;2022-08-04T11:58:25;3.08;;;2.10;;
13309;SDS011;6723;48.256;16.402;2022-08-04T12:00:54;2.72;;;2.00;;
13309;SDS011;6723;48.256;16.402;2022-08-04T12:14:29;4.15;;;2.30;;
13309;SDS011;6723;48.256;16.402;2022-08-04T12:17:08;4.47;;;2.30;;
13309;SDS011;6723;48.256;16.402;2022-08-04T12:19:50;3.08;;;2.03;;
13309;SDS011;6723;48.256;16.402;2022-08-04T12:22:21;3.78;;;2.50;;
13309;SDS011;6723;48.256;16.402;2022-08-04T12:24:52;5.35;;;2.72;;
13309;SDS011;6723;48.256;16.402;2022-08-04T12:30:30;2.88;;;2.40;;
13309;SDS011;6723;48.256;16.402;2022-08-04T12:36:28;4.78;;;2.47;;
13309;SDS011;6723;48.256;16.402;2022-08-04T12:39:18;2.63;;;2.25;;
13309;SDS011;6723;48.256;16.402;2022-08-04T12:42:02;2.40;;;2.15;;
13309;SDS011;6723;48.256;16.402;2022-08-04T12:44:45;5.00;;;2.58;;
13309;SDS011;6723;48.256;16.402;2022-08-04T12:47:18;3.45;;;1.83;;
13309;SDS011;6723;48.256;16.402;2022-08-04T12:49:48;3.97;;;2.33;;
13309;SDS011;6723;48.256;16.402;2022-08-04T12:52:17;3.00;;;2.40;;
13309;SDS011;6723;48.256;16.402;2022-08-04T12:54:44;3.13;;;2.20;;
13309;SDS011;6723;48.256;16.402;2022-08-04T12:57:16;4.68;;;2.20;;
13309;SDS011;6723;48.256;16.402;2022-08-04T12:59:43;4.53;;;2.10;;
13309;SDS011;6723;48.256;16.402;2022-08-04T13:02:24;4.97;;;2.33;;
13309;SDS011;6723;48.256;16.402;2022-08-04T13:04:54;2.20;;;2.00;;
13309;SDS011;6723;48.256;16.402;2022-08-04T13:07:23;4.53;;;2.30;;
13309;SDS011;6723;48.256;16.402;2022-08-04T13:09:52;2.88;;;2.20;;
13309;SDS011;6723;48.256;16.402;2022-08-04T13:12:22;2.30;;;2.10;;
13309;SDS011;6723;48.256;16.402;2022-08-04T13:14:50;2.08;;;1.98;;
13309;SDS011;6723;48.256;16.402;2022-08-04T13:17:24;2.22;;;2.10;;
13309;SDS011;6723;48.256;16.402;2022-08-04T13:19:50;2.35;;;2.15;;
13309;SDS011;6723;48.256;16.402;2022-08-04T13:22:26;2.58;;;1.77;;
13309;SDS011;6723;48.256;16.402;2022-08-04T13:24:57;4.43;;;2.22;;
13309;SDS011;6723;48.256;16.402;2022-08-04T13:27:24;2.15;;;1.95;;
13309;SDS011;6723;48.256;16.402;2022-08-04T13:29:51;2.20;;;2.00;;
13309;SDS011;6723;48.256;16.402;2022-08-04T13:32:22;2.83;;;2.08;;
13309;SDS011;6723;48.256;16.402;2022-08-04T13:34:53;2.88;;;2.33;;
13309;SDS011;6723;48.256;16.402;2022-08-04T13:37:29;3.35;;;2.10;;
13309;SDS011;6723;48.256;16.402;2022-08-04T13:39:59;3.25;;;2.05;;
13309;SDS011;6723;48.256;16.402;2022-08-04T13:42:30;3.05;;;1.92;;
13309;SDS011;6723;48.256;16.402;2022-08-04T13:44:59;2.38;;;2.17;;
13309;SDS011;6723;48.256;16.402;2022-08-04T13:47:33;5.32;;;2.30;;
13309;SDS011;6723;48.256;16.402;2022-08-04T13:50:19;2.17;;;1.92;;
13309;SDS011;6723;48.256;16.402;2022-08-04T13:52:50;2.67;;;2.10;;
13309;SDS011;6723;48.256;16.402;2022-08-04T13:55:30;2.72;;;1.80;;
13309;SDS011;6723;48.256;16.402;2022-08-04T14:00:36;4.57;;;3.30;;
13309;SDS011;6723;48.256;16.402;2022-08-04T14:03:06;2.28;;;2.05;;
13309;SDS011;6723;48.256;16.402;2022-08-04T14:05:33;2.38;;;2.10;;
13309;SDS011;6723;48.256;16.402;2022-08-04T14:08:03;3.63;;;2.00;;
13309;SDS011;6723;48.256;16.402;2022-08-04T14:10:31;4.20;;;2.08;;
13309;SDS011;6723;48.256;16.402;2022-08-04T14:12:58;3.30;;;2.17;;
13309;SDS011;6723;48.256;16.402;2022-08-04T14:18:17;2.30;;;2.10;;
13309;SDS011;6723;48.256;16.402;2022-08-04T14:23:24;2.40;;;2.20;;
13309;SDS011;6723;48.256;16.402;2022-08-04T14:25:51;2.55;;;2.35;;
13309;SDS011;6723;48.256;16.402;2022-08-04T14:28:30;2.60;;;2.40;;
13309;SDS011;6723;48.256;16.402;2022-08-04T14:31:09;4.07;;;2.38;;
13309;SDS011;6723;48.256;16.402;2022-08-04T14:33:36;2.72;;;2.30;;
13309;SDS011;6723;48.256;16.402;2022-08-04T14:36:03;2.15;;;1.98;;
13309;SDS011;6723;48.256;16.402;2022-08-04T14:38:50;3.75;;;2.05;;
13309;SDS011;6723;48.256;16.402;2022-08-04T14:41:24;3.42;;;2.35;;
13309;SDS011;6723;48.256;16.402;2022-08-04T14:44:01;6.20;;;5.60;;
13309;SDS011;6723;48.256;16.402;2022-08-04T14:46:27;4.75;;;2.30;;
13309;SDS011;6723;48.256;16.402;2022-08-04T14:51:38;2.80;;;2.13;;
13309;SDS011;6723;48.256;16.402;2022-08-04T14:54:10;2.72;;;2.00;;
13309;SDS011;6723;48.256;16.402;2022-08-04T14:56:38;2.88;;;2.20;;
13309;SDS011;6723;48.256;16.402;2022-08-04T14:59:08;2.67;;;1.90;;
13309;SDS011;6723;48.256;16.402;2022-08-04T15:01:38;3.55;;;2.33;;
13309;SDS011;6723;48.256;16.402;2022-08-04T15:04:07;2.17;;;1.98;;
13309;SDS011;6723;48.256;16.402;2022-08-04T15:06:34;3.03;;;2.30;;
13309;SDS011;6723;48.256;16.402;2022-08-04T15:09:04;5.18;;;2.08;;
13309;SDS011;6723;48.256;16.402;2022-08-04T15:11:32;4.68;;;2.45;;
13309;SDS011;6723;48.256;16.402;2022-08-04T15:13:59;2.72;;;2.40;;
13309;SDS011;6723;48.256;16.402;2022-08-04T15:16:26;3.72;;;2.60;;
13309;SDS011;6723;48.256;16.402;2022-08-04T15:18:54;3.33;;;2.50;;
13309;SDS011;6723;48.256;16.402;2022-08-04T15:21:21;2.47;;;2.28;;
13309;SDS011;6723;48.256;16.402;2022-08-04T15:23:48;3.92;;;2.10;;
13309;SDS011;6723;48.256;16.402;2022-08-04T15:26:21;3.92;;;3.25;;
13309;SDS011;6723;48.256;16.402;2022-08-04T15:29:45;3.65;;;2.33;;
13309;SDS011;6723;48.256;16.402;2022-08-04T15:31:54;3.13;;;2.28;;
13309;SDS011;6723;48.256;16.402;2022-08-04T15:34:21;3.47;;;1.92;;
13309;SDS011;6723;48.256;16.402;2022-08-04T15:47:15;4.50;;;2.30;;
13309;SDS011;6723;48.256;16.402;2022-08-04T15:49:43;2.90;;;2.70;;
13309;SDS011;6723;48.256;16.402;2022-08-04T15:52:10;4.18;;;2.85;;
13309;SDS011;6723;48.256;16.402;2022-08-04T15:54:40;3.50;;;2.25;;
13309;SDS011;6723;48.256;16.402;2022-08-04T15:57:06;6.00;;;2.28;;
13309;SDS011;6723;48.256;16.402;2022-08-04T16:05:44;3.53;;;2.10;;
13309;SDS011;6723;48.256;16.402;2022-08-04T16:08:01;3.77;;;2.00;;
13309;SDS011;6723;48.256;16.402;2022-08-04T16:10:35;2.90;;;2.63;;
13309;SDS011;6723;48.256;16.402;2022-08-04T16:13:04;3.20;;;2.10;;
13309;SDS011;6723;48.256;16.402;2022-08-04T16:15:44;3.30;;;1.90;;
13309;SDS011;6723;48.256;16.402;2022-08-04T16:18:19;3.43;;;2.00;;
13309;SDS011;6723;48.256;16.402;2022-08-04T16:21:00;2.33;;;2.03;;
13309;SDS011;6723;48.256;16.402;2022-08-04T16:26:08;2.27;;;2.10;;
13309;SDS011;6723;48.256;16.402;2022-08-04T16:31:02;5.20;;;2.30;;
13309;SDS011;6723;48.256;16.402;2022-08-04T16:33:29;4.80;;;2.03;;
13309;SDS011;6723;48.256;16.402;2022-08-04T16:35:57;2.77;;;1.80;;
13309;SDS011;6723;48.256;16.402;2022-08-04T16:38:24;5.37;;;2.50;;
13309;SDS011;6723;48.256;16.402;2022-08-04T16:40:55;2.30;;;1.87;;
13309;SDS011;6723;48.256;16.402;2022-08-04T16:43:25;2.37;;;2.17;;
13309;SDS011;6723;48.256;16.402;2022-08-04T16:46:00;5.07;;;2.23;;
13309;SDS011;6723;48.256;16.402;2022-08-04T16:48:32;2.63;;;2.00;;
13309;SDS011;6723;48.256;16.402;2022-08-04T16:51:06;6.13;;;2.10;;
13309;SDS011;6723;48.256;16.402;2022-08-04T16:53:39;3.67;;;2.27;;
13309;SDS011;6723;48.256;16.402;2022-08-04T16:56:13;4.77;;;2.07;;
13309;SDS011;6723;48.256;16.402;2022-08-04T16:58:42;4.80;;;2.40;;
13309;SDS011;6723;48.256;16.402;2022-08-04T17:01:12;4.50;;;2.60;;
13309;SDS011;6723;48.256;16.402;2022-08-04T17:03:47;5.30;;;3.20;;
13309;SDS011;6723;48.256;16.402;2022-08-04T17:06:15;3.60;;;2.70;;
13309;SDS011;6723;48.256;16.402;2022-08-04T17:08:42;3.87;;;3.00;;
13309;SDS011;6723;48.256;16.402;2022-08-04T17:11:09;3.50;;;2.40;;
13309;SDS011;6723;48.256;16.402;2022-08-04T17:13:38;2.10;;;2.00;;
13309;SDS011;6723;48.256;16.402;2022-08-04T17:16:07;3.93;;;2.17;;
13309;SDS011;6723;48.256;16.402;2022-08-04T17:18:38;3.47;;;2.30;;
13309;SDS011;6723;48.256;16.402;2022-08-04T17:21:08;3.00;;;2.20;;
13309;SDS011;6723;48.256;16.402;2022-08-04T17:23:43;2.73;;;2.37;;
13309;SDS011;6723;48.256;16.402;2022-08-04T17:26:17;4.23;;;2.37;;
13309;SDS011;6723;48.256;16.402;2022-08-04T17:28:46;3.70;;;2.20;;
13309;SDS011;6723;48.256;16.402;2022-08-04T17:31:14;7.20;;;2.00;;
13309;SDS011;6723;48.256;16.402;2022-08-04T17:33:45;4.03;;;2.20;;
13309;SDS011;6723;48.256;16.402;2022-08-04T17:36:12;2.60;;;2.30;;
13309;SDS011;6723;48.256;16.402;2022-08-04T17:38:40;2.37;;;2.17;;
13309;SDS011;6723;48.256;16.402;2022-08-04T17:41:11;4.57;;;1.87;;
13309;SDS011;6723;48.256;16.402;2022-08-04T17:43:41;4.93;;;2.10;;
13309;SDS011;6723;48.256;16.402;2022-08-04T17:51:33;2.70;;;2.07;;
13309;SDS011;6723;48.256;16.402;2022-08-04T17:54:11;4.43;;;2.10;;
13309;SDS011;6723;48.256;16.402;2022-08-04T17:56:41;4.43;;;2.07;;
13309;SDS011;6723;48.256;16.402;2022-08-04T18:04:35;4.97;;;2.00;;
13309;SDS011;6723;48.256;16.402;2022-08-04T18:12:24;2.90;;;2.60;;
13309;SDS011;6723;48.256;16.402;2022-08-04T18:15:02;4.37;;;2.53;;
13309;SDS011;6723;48.256;16.402;2022-08-04T18:19:58;7.27;;;2.63;;
13309;SDS011;6723;48.256;16.402;2022-08-04T18:22:26;3.50;;;2.50;;
13309;SDS011;6723;48.256;16.402;2022-08-04T18:24:52;8.03;;;2.47;;
13309;SDS011;6723;48.256;16.402;2022-08-04T18:30:27;3.43;;;2.33;;
13309;SDS011;6723;48.256;16.402;2022-08-04T18:32:54;3.83;;;2.40;;
13309;SDS011;6723;48.256;16.402;2022-08-04T18:35:20;3.33;;;2.30;;
13309;SDS011;6723;48.256;16.402;2022-08-04T18:37:46;5.57;;;2.53;;
13309;SDS011;6723;48.256;16.402;2022-08-04T18:40:26;5.50;;;2.60;;
13309;SDS011;6723;48.256;16.402;2022-08-04T18:42:52;6.73;;;3.40;;
13309;SDS011;6723;48.256;16.402;2022-08-04T18:45:17;8.03;;;4.73;;
13309;SDS011;6723;48.256;16.402;2022-08-04T18:47:43;14.17;;;6.87;;
13309;SDS011;6723;48.256;16.402;2022-08-04T18:50:09;12.90;;;8.27;;
13309;SDS011;6723;48.256;16.402;2022-08-04T18:52:35;8.00;;;4.77;;
13309;SDS011;6723;48.256;16.402;2022-08-04T18:55:01;7.80;;;3.90;;
13309;SDS011;6723;48.256;16.402;2022-08-04T18:57:28;7.87;;;3.80;;
13309;SDS011;6723;48.256;16.402;2022-08-04T18:59:57;6.07;;;3.90;;
13309;SDS011;6723;48.256;16.402;2022-08-04T19:02:23;8.50;;;3.47;;
13309;SDS011;6723;48.256;16.402;2022-08-04T19:04:49;8.80;;;3.83;;
13309;SDS011;6723;48.256;16.402;2022-08-04T19:07:15;5.47;;;3.20;;
13309;SDS011;6723;48.256;16.402;2022-08-04T19:09:51;9.33;;;3.83;;
13309;SDS011;6723;48.256;16.402;2022-08-04T19:12:17;5.97;;;3.63;;
13309;SDS011;6723;48.256;16.402;2022-08-04T19:14:43;7.17;;;3.60;;
13309;SDS011;6723;48.256;16.402;2022-08-04T19:17:09;4.97;;;3.50;;
13309;SDS011;6723;48.256;16.402;2022-08-04T19:19:34;7.37;;;3.73;;
13309;SDS011;6723;48.256;16.402;2022-08-04T19:22:00;5.40;;;3.90;;
13309;SDS011;6723;48.256;16.402;2022-08-04T19:24:26;4.60;;;3.50;;
13309;SDS011;6723;48.256;16.402;2022-08-04T19:26:52;4.53;;;3.53;;
13309;SDS011;6723;48.256;16.402;2022-08-04T19:29:19;7.30;;;3.80;;
13309;SDS011;6723;48.256;16.402;2022-08-04T19:31:44;4.90;;;3.80;;
13309;SDS011;6723;48.256;16.402;2022-08-04T19:34:10;7.67;;;3.50;;
13309;SDS011;6723;48.256;16.402;2022-08-04T19:36:36;9.23;;;3.90;;
13309;SDS011;6723;48.256;16.402;2022-08-04T19:39:04;9.47;;;3.90;;
13309;SDS011;6723;48.256;16.402;2022-08-04T19:41:32;6.60;;;3.80;;
13309;SDS011;6723;48.256;16.402;2022-08-04T19:44:01;7.50;;;3.67;;
13309;SDS011;6723;48.256;16.402;2022-08-04T19:46:34;7.03;;;4.30;;
13309;SDS011;6723;48.256;16.402;2022-08-04T19:48:59;6.60;;;4.93;;
13309;SDS011;6723;48.256;16.402;2022-08-04T19:51:25;9.37;;;4.20;;
13309;SDS011;6723;48.256;16.402;2022-08-04T19:56:27;8.10;;;5.70;;
13309;SDS011;6723;48.256;16.402;2022-08-04T19:58:53;8.83;;;4.07;;
13309;SDS011;6723;48.256;16.402;2022-08-04T20:01:19;8.23;;;3.97;;
13309;SDS011;6723;48.256;16.402;2022-08-04T20:03:44;7.27;;;3.87;;
13309;SDS011;6723;48.256;16.402;2022-08-04T20:06:10;6.07;;;4.07;;
13309;SDS011;6723;48.256;16.402;2022-08-04T20:08:37;6.23;;;3.43;;
13309;SDS011;6723;48.256;16.402;2022-08-04T20:11:05;6.80;;;4.20;;
13309;SDS011;6723;48.256;16.402;2022-08-04T20:13:30;9.10;;;4.40;;
13309;SDS011;6723;48.256;16.402;2022-08-04T20:15:57;9.97;;;4.20;;
13309;SDS011;6723;48.256;16.402;2022-08-04T20:18:24;7.33;;;4.80;;
13309;SDS011;6723;48.256;16.402;2022-08-04T20:20:57;9.40;;;7.77;;
13309;SDS011;6723;48.256;16.402;2022-08-04T20:23:24;11.40;;;5.30;;
13309;SDS011;6723;48.256;16.402;2022-08-04T20:25:49;12.43;;;6.97;;
13309;SDS011;6723;48.256;16.402;2022-08-04T20:28:15;15.03;;;5.30;;
13309;SDS011;6723;48.256;16.402;2022-08-04T20:30:41;8.40;;;4.40;;